sensor_id;sensor_type;location;lat;lon;timestamp;pressure;altitude;pressure_sealevel;temperature;humidity
19795;BME280;10057;59.402;17.866;2022-11-04T00:01:44;101104.47;;;8.49;89.13
19795;BME280;10057;59.402;17.866;2022-11-04T00:04:12;101102.75;;;8.48;88.90
19795;BME280;10057;59.402;17.866;2022-11-04T00:06:42;101108.03;;;8.48;89.18
19795;BME280;10057;59.402;17.866;2022-11-04T00:09:12;101097.47;;;8.48;89.35
19795;BME280;10057;59.402;17.866;2022-11-04T00:11:41;101099.19;;;8.49;89.10
19795;BME280;10057;59.402;17.866;2022-11-04T00:14:27;101100.09;;;8.48;89.23
19795;BME280;10057;59.402;17.866;2022-11-04T00:16:57;101094.88;;;8.45;89.33
19795;BME280;10057;59.402;17.866;2022-11-04T00:19:47;101094.09;;;8.42;89.12
19795;BME280;10057;59.402;17.866;2022-11-04T00:22:34;101098.56;;;8.38;89.01
19795;BME280;10057;59.402;17.866;2022-11-04T00:25:20;101092.44;;;8.35;89.49
19795;BME280;10057;59.402;17.866;2022-11-04T00:28:15;101088.91;;;8.34;89.55
19795;BME280;10057;59.402;17.866;2022-11-04T00:31:02;101098.59;;;8.35;89.45
19795;BME280;10057;59.402;17.866;2022-11-04T00:33:52;101088.09;;;8.32;89.26
19795;BME280;10057;59.402;17.866;2022-11-04T00:36:25;101078.44;;;8.29;88.83
19795;BME280;10057;59.402;17.866;2022-11-04T00:38:52;101086.50;;;8.25;89.32
19795;BME280;10057;59.402;17.866;2022-11-04T00:41:19;101082.19;;;8.21;89.24
19795;BME280;10057;59.402;17.866;2022-11-04T00:43:52;101083.13;;;8.17;89.22
19795;BME280;10057;59.402;17.866;2022-11-04T00:46:19;101083.22;;;8.14;89.30
19795;BME280;10057;59.402;17.866;2022-11-04T00:48:46;101084.97;;;8.13;89.41
19795;BME280;10057;59.402;17.866;2022-11-04T00:51:14;101085.00;;;8.12;89.63
19795;BME280;10057;59.402;17.866;2022-11-04T00:53:40;101087.72;;;8.08;89.35
19795;BME280;10057;59.402;17.866;2022-11-04T00:56:10;101087.78;;;8.07;89.37
19795;BME280;10057;59.402;17.866;2022-11-04T00:58:37;101093.88;;;8.09;89.57
19795;BME280;10057;59.402;17.866;2022-11-04T01:01:11;101089.50;;;8.06;89.59
19795;BME280;10057;59.402;17.866;2022-11-04T01:03:38;101093.00;;;8.08;89.24
19795;BME280;10057;59.402;17.866;2022-11-04T01:06:05;101093.06;;;8.07;89.71
19795;BME280;10057;59.402;17.866;2022-11-04T01:08:32;101084.34;;;8.02;89.31
19795;BME280;10057;59.402;17.866;2022-11-04T01:11:06;101093.19;;;7.99;89.39
19795;BME280;10057;59.402;17.866;2022-11-04T01:13:33;101088.88;;;7.95;89.69
19795;BME280;10057;59.402;17.866;2022-11-04T01:16:02;101089.03;;;7.88;89.62
19795;BME280;10057;59.402;17.866;2022-11-04T01:18:29;101092.63;;;7.85;89.57
19795;BME280;10057;59.402;17.866;2022-11-04T01:21:03;101083.88;;;7.83;89.69
19795;BME280;10057;59.402;17.866;2022-11-04T01:23:33;101092.66;;;7.82;89.70
19795;BME280;10057;59.402;17.866;2022-11-04T01:26:00;101090.09;;;7.79;89.63
19795;BME280;10057;59.402;17.866;2022-11-04T01:28:27;101090.16;;;7.76;89.40
19795;BME280;10057;59.402;17.866;2022-11-04T01:30:53;101087.66;;;7.68;89.36
19795;BME280;10057;59.402;17.866;2022-11-04T01:33:20;101083.31;;;7.66;89.44
19795;BME280;10057;59.402;17.866;2022-11-04T01:35:47;101093.03;;;7.64;89.76
19795;BME280;10057;59.402;17.866;2022-11-04T01:38:13;101081.69;;;7.60;89.62
19795;BME280;10057;59.402;17.866;2022-11-04T01:40:40;101084.31;;;7.60;89.66
19795;BME280;10057;59.402;17.866;2022-11-04T01:43:16;101079.03;;;7.60;89.64
19795;BME280;10057;59.402;17.866;2022-11-04T01:45:50;101081.69;;;7.58;89.76
19795;BME280;10057;59.402;17.866;2022-11-04T01:48:28;101076.47;;;7.55;89.61
19795;BME280;10057;59.402;17.866;2022-11-04T01:50:57;101076.56;;;7.52;89.57
19795;BME280;10057;59.402;17.866;2022-11-04T01:53:32;101080.97;;;7.50;89.35
19795;BME280;10057;59.402;17.866;2022-11-04T01:56:02;101088.03;;;7.48;89.65
19795;BME280;10057;59.402;17.866;2022-11-04T01:58:45;101075.78;;;7.46;89.41
19795;BME280;10057;59.402;17.866;2022-11-04T02:01:13;101083.78;;;7.43;89.74
19795;BME280;10057;59.402;17.866;2022-11-04T02:03:49;101075.91;;;7.38;89.39
19795;BME280;10057;59.402;17.866;2022-11-04T02:06:18;101080.31;;;7.39;89.68
19795;BME280;10057;59.402;17.866;2022-11-04T02:08:48;101076.81;;;7.37;89.64
19795;BME280;10057;59.402;17.866;2022-11-04T02:11:15;101073.28;;;7.38;89.92
19795;BME280;10057;59.402;17.866;2022-11-04T02:14:01;101075.91;;;7.38;89.98
19795;BME280;10057;59.402;17.866;2022-11-04T02:16:37;101076.78;;;7.40;89.72
19795;BME280;10057;59.402;17.866;2022-11-04T02:25:30;101074.84;;;7.48;90.05
19795;BME280;10057;59.402;17.866;2022-11-04T02:27:54;101069.50;;;7.53;90.24
19795;BME280;10057;59.402;17.866;2022-11-04T02:30:34;101067.63;;;7.58;90.29
19795;BME280;10057;59.402;17.866;2022-11-04T02:39:31;101071.66;;;7.76;89.79
19795;BME280;10057;59.402;17.866;2022-11-04T02:42:10;101078.66;;;7.78;90.13
19795;BME280;10057;59.402;17.866;2022-11-04T02:44:49;101073.31;;;7.81;90.27
19795;BME280;10057;59.402;17.866;2022-11-04T02:47:22;101074.16;;;7.83;90.05
19795;BME280;10057;59.402;17.866;2022-11-04T02:52:24;101079.34;;;7.88;90.46
19795;BME280;10057;59.402;17.866;2022-11-04T02:54:58;101071.34;;;7.91;89.89
19795;BME280;10057;59.402;17.866;2022-11-04T02:57:29;101081.88;;;7.93;90.26
19795;BME280;10057;59.402;17.866;2022-11-04T03:00:04;101073.94;;;7.94;90.33
19795;BME280;10057;59.402;17.866;2022-11-04T03:02:49;101074.81;;;7.95;90.08
19795;BME280;10057;59.402;17.866;2022-11-04T03:05:22;101069.56;;;7.93;90.08
19795;BME280;10057;59.402;17.866;2022-11-04T03:07:54;101067.81;;;7.92;90.02
19795;BME280;10057;59.402;17.866;2022-11-04T03:10:32;101073.09;;;7.92;90.36
19795;BME280;10057;59.402;17.866;2022-11-04T03:13:09;101063.44;;;7.91;90.06
19795;BME280;10057;59.402;17.866;2022-11-04T03:15:38;101066.97;;;7.90;90.10
19795;BME280;10057;59.402;17.866;2022-11-04T03:18:32;101060.00;;;7.86;90.31
19795;BME280;10057;59.402;17.866;2022-11-04T03:21:02;101058.28;;;7.85;89.74
19795;BME280;10057;59.402;17.866;2022-11-04T03:23:29;101060.97;;;7.82;90.24
19795;BME280;10057;59.402;17.866;2022-11-04T03:26:08;101061.88;;;7.81;90.13
19795;BME280;10057;59.402;17.866;2022-11-04T03:31:35;101059.31;;;7.78;89.74
19795;BME280;10057;59.402;17.866;2022-11-04T03:34:05;101070.78;;;7.77;90.56
19795;BME280;10057;59.402;17.866;2022-11-04T03:36:31;101070.78;;;7.77;90.07
19795;BME280;10057;59.402;17.866;2022-11-04T03:38:58;101073.41;;;7.77;90.34
19795;BME280;10057;59.402;17.866;2022-11-04T03:41:30;101073.41;;;7.77;90.17
19795;BME280;10057;59.402;17.866;2022-11-04T03:43:59;101072.50;;;7.78;90.02
19795;BME280;10057;59.402;17.866;2022-11-04T03:46:26;101066.34;;;7.77;90.32
19795;BME280;10057;59.402;17.866;2022-11-04T03:48:53;101065.50;;;7.77;90.44
19795;BME280;10057;59.402;17.866;2022-11-04T03:51:21;101058.44;;;7.76;90.67
19795;BME280;10057;59.402;17.866;2022-11-04T03:53:47;101062.00;;;7.75;90.20
19795;BME280;10057;59.402;17.866;2022-11-04T03:59:06;101053.25;;;7.73;90.51
19795;BME280;10057;59.402;17.866;2022-11-04T04:04:36;101058.50;;;7.74;90.35
19795;BME280;10057;59.402;17.866;2022-11-04T04:07:47;101062.88;;;7.75;90.18
19795;BME280;10057;59.402;17.866;2022-11-04T04:10:21;101063.69;;;7.79;90.51
19795;BME280;10057;59.402;17.866;2022-11-04T04:13:17;101067.13;;;7.82;90.48
19795;BME280;10057;59.402;17.866;2022-11-04T04:15:49;101055.63;;;7.85;90.37
19795;BME280;10057;59.402;17.866;2022-11-04T04:18:24;101060.91;;;7.87;90.38
19795;BME280;10057;59.402;17.866;2022-11-04T04:20:54;101059.94;;;7.89;89.97
19795;BME280;10057;59.402;17.866;2022-11-04T04:23:26;101062.56;;;7.91;90.74
19795;BME280;10057;59.402;17.866;2022-11-04T04:26:13;101062.59;;;7.89;90.62
19795;BME280;10057;59.402;17.866;2022-11-04T04:29:00;101061.69;;;7.90;90.62
19795;BME280;10057;59.402;17.866;2022-11-04T04:31:29;101070.44;;;7.92;90.27
19795;BME280;10057;59.402;17.866;2022-11-04T04:34:25;101068.66;;;7.94;90.53
19795;BME280;10057;59.402;17.866;2022-11-04T04:37:14;101072.97;;;7.98;90.39
19795;BME280;10057;59.402;17.866;2022-11-04T04:39:47;101076.41;;;8.02;90.35
19795;BME280;10057;59.402;17.866;2022-11-04T04:42:35;101077.22;;;8.05;90.80
19795;BME280;10057;59.402;17.866;2022-11-04T04:45:36;101077.16;;;8.08;90.36
19795;BME280;10057;59.402;17.866;2022-11-04T04:48:04;101067.38;;;8.14;90.43
19795;BME280;10057;59.402;17.866;2022-11-04T04:50:38;101068.19;;;8.16;90.46
19795;BME280;10057;59.402;17.866;2022-11-04T04:53:06;101074.28;;;8.19;90.67
19795;BME280;10057;59.402;17.866;2022-11-04T04:55:33;101072.47;;;8.21;90.54
19795;BME280;10057;59.402;17.866;2022-11-04T04:58:07;101075.00;;;8.26;90.95
19795;BME280;10057;59.402;17.866;2022-11-04T05:00:34;101080.19;;;8.30;90.62
19795;BME280;10057;59.402;17.866;2022-11-04T05:03:00;101072.22;;;8.32;90.91
19795;BME280;10057;59.402;17.866;2022-11-04T05:05:27;101070.44;;;8.32;91.02
19795;BME280;10057;59.402;17.866;2022-11-04T05:07:54;101075.69;;;8.34;90.80
19795;BME280;10057;59.402;17.866;2022-11-04T05:10:21;101071.31;;;8.33;90.91
19795;BME280;10057;59.402;17.866;2022-11-04T05:12:47;101063.38;;;8.33;90.72
19795;BME280;10057;59.402;17.866;2022-11-04T05:15:52;101073.09;;;8.32;90.69
19795;BME280;10057;59.402;17.866;2022-11-04T05:18:19;101065.22;;;8.31;90.80
19795;BME280;10057;59.402;17.866;2022-11-04T05:20:46;101074.00;;;8.31;90.42
19795;BME280;10057;59.402;17.866;2022-11-04T05:23:12;101070.50;;;8.31;90.47
19795;BME280;10057;59.402;17.866;2022-11-04T05:25:40;101067.00;;;8.29;90.42
19795;BME280;10057;59.402;17.866;2022-11-04T05:28:07;101074.03;;;8.30;90.79
19795;BME280;10057;59.402;17.866;2022-11-04T05:30:35;101072.28;;;8.29;90.58
19795;BME280;10057;59.402;17.866;2022-11-04T05:33:01;101074.88;;;8.30;90.90
19795;BME280;10057;59.402;17.866;2022-11-04T05:35:31;101075.75;;;8.32;91.01
19795;BME280;10057;59.402;17.866;2022-11-04T05:37:58;101071.31;;;8.33;90.37
19795;BME280;10057;59.402;17.866;2022-11-04T05:40:25;101076.53;;;8.36;91.31
19795;BME280;10057;59.402;17.866;2022-11-04T05:42:51;101076.53;;;8.36;90.80
19795;BME280;10057;59.402;17.866;2022-11-04T05:45:18;101075.63;;;8.37;90.62
19795;BME280;10057;59.402;17.866;2022-11-04T05:47:44;101071.16;;;8.41;90.81
19795;BME280;10057;59.402;17.866;2022-11-04T05:50:11;101072.94;;;8.42;90.87
19795;BME280;10057;59.402;17.866;2022-11-04T05:52:38;101067.56;;;8.45;91.38
19795;BME280;10057;59.402;17.866;2022-11-04T05:55:05;101060.53;;;8.44;91.11
19795;BME280;10057;59.402;17.866;2022-11-04T05:57:31;101071.91;;;8.47;91.30
19795;BME280;10057;59.402;17.866;2022-11-04T05:59:58;101070.09;;;8.49;90.80
19795;BME280;10057;59.402;17.866;2022-11-04T06:02:25;101070.94;;;8.51;91.34
19795;BME280;10057;59.402;17.866;2022-11-04T06:04:51;101066.47;;;8.53;90.90
19795;BME280;10057;59.402;17.866;2022-11-04T06:07:18;101064.69;;;8.56;91.09
19795;BME280;10057;59.402;17.866;2022-11-04T06:09:44;101063.75;;;8.57;90.86
19795;BME280;10057;59.402;17.866;2022-11-04T06:12:13;101061.97;;;8.59;90.86
19795;BME280;10057;59.402;17.866;2022-11-04T06:14:41;101067.19;;;8.60;91.06
19795;BME280;10057;59.402;17.866;2022-11-04T06:17:12;101068.91;;;8.63;91.06
19795;BME280;10057;59.402;17.866;2022-11-04T06:19:39;101064.47;;;8.63;91.37
19795;BME280;10057;59.402;17.866;2022-11-04T06:22:06;101065.34;;;8.64;90.88
19795;BME280;10057;59.402;17.866;2022-11-04T06:24:33;101068.84;;;8.66;90.88
19795;BME280;10057;59.402;17.866;2022-11-04T06:27:00;101065.34;;;8.64;90.59
19795;BME280;10057;59.402;17.866;2022-11-04T06:29:26;101070.56;;;8.67;91.25
19795;BME280;10057;59.402;17.866;2022-11-04T06:31:53;101067.06;;;8.65;90.65
19795;BME280;10057;59.402;17.866;2022-11-04T06:34:20;101065.34;;;8.64;90.49
19795;BME280;10057;59.402;17.866;2022-11-04T06:36:48;101067.19;;;8.62;90.59
19795;BME280;10057;59.402;17.866;2022-11-04T06:39:15;101065.47;;;8.59;90.44
19795;BME280;10057;59.402;17.866;2022-11-04T06:41:41;101061.13;;;8.57;90.70
19795;BME280;10057;59.402;17.866;2022-11-04T06:44:09;101062.03;;;8.54;90.96
19795;BME280;10057;59.402;17.866;2022-11-04T06:46:38;101072.69;;;8.52;90.63
19795;BME280;10057;59.402;17.866;2022-11-04T06:49:06;101063.91;;;8.50;90.46
19795;BME280;10057;59.402;17.866;2022-11-04T06:51:35;101067.47;;;8.49;90.89
19795;BME280;10057;59.402;17.866;2022-11-04T06:54:01;101076.31;;;8.48;90.65
19795;BME280;10057;59.402;17.866;2022-11-04T06:56:28;101073.69;;;8.47;90.36
19795;BME280;10057;59.402;17.866;2022-11-04T06:58:55;101075.47;;;8.46;90.59
19795;BME280;10057;59.402;17.866;2022-11-04T07:01:26;101077.25;;;8.44;90.95
19795;BME280;10057;59.402;17.866;2022-11-04T07:03:55;101075.50;;;8.45;90.62
19795;BME280;10057;59.402;17.866;2022-11-04T07:06:22;101077.31;;;8.43;90.56
19795;BME280;10057;59.402;17.866;2022-11-04T07:08:49;101073.81;;;8.41;90.48
19795;BME280;10057;59.402;17.866;2022-11-04T07:11:19;101073.81;;;8.41;90.26
19795;BME280;10057;59.402;17.866;2022-11-04T07:13:47;101074.78;;;8.38;90.78
19795;BME280;10057;59.402;17.866;2022-11-04T07:16:14;101075.63;;;8.39;90.77
19795;BME280;10057;59.402;17.866;2022-11-04T07:18:41;101081.81;;;8.36;90.68
19795;BME280;10057;59.402;17.866;2022-11-04T07:21:08;101084.47;;;8.38;90.42
19795;BME280;10057;59.402;17.866;2022-11-04T07:23:36;101083.56;;;8.37;90.67
19795;BME280;10057;59.402;17.866;2022-11-04T07:26:05;101084.44;;;8.39;90.78
19795;BME280;10057;59.402;17.866;2022-11-04T07:28:32;101083.56;;;8.37;90.20
19795;BME280;10057;59.402;17.866;2022-11-04T07:31:00;101079.16;;;8.39;90.62
19795;BME280;10057;59.402;17.866;2022-11-04T07:33:28;101088.00;;;8.38;90.45
19795;BME280;10057;59.402;17.866;2022-11-04T07:35:54;101087.94;;;8.41;91.00
19795;BME280;10057;59.402;17.866;2022-11-04T07:38:23;101080.84;;;8.42;90.66
19795;BME280;10057;59.402;17.866;2022-11-04T07:40:50;101086.09;;;8.43;90.70
19795;BME280;10057;59.402;17.866;2022-11-04T07:43:17;101087.75;;;8.47;90.33
19795;BME280;10057;59.402;17.866;2022-11-04T07:45:43;101090.34;;;8.50;90.54
19795;BME280;10057;59.402;17.866;2022-11-04T07:48:10;101083.25;;;8.52;90.64
19795;BME280;10057;59.402;17.866;2022-11-04T07:50:38;101077.91;;;8.54;90.73
19795;BME280;10057;59.402;17.866;2022-11-04T07:53:06;101084.00;;;8.58;90.70
19795;BME280;10057;59.402;17.866;2022-11-04T07:55:36;101089.19;;;8.62;90.59
19795;BME280;10057;59.402;17.866;2022-11-04T07:58:08;101088.22;;;8.66;90.59
19795;BME280;10057;59.402;17.866;2022-11-04T08:00:35;101086.38;;;8.70;90.68
19795;BME280;10057;59.402;17.866;2022-11-04T08:03:02;101086.31;;;8.73;90.11
19795;BME280;10057;59.402;17.866;2022-11-04T08:05:28;101087.97;;;8.77;90.56
19795;BME280;10057;59.402;17.866;2022-11-04T08:07:55;101090.53;;;8.80;90.57
19795;BME280;10057;59.402;17.866;2022-11-04T08:10:23;101088.63;;;8.85;90.24
19795;BME280;10057;59.402;17.866;2022-11-04T08:12:50;101089.41;;;8.89;90.18
19795;BME280;10057;59.402;17.866;2022-11-04T08:15:17;101091.06;;;8.94;90.31
19795;BME280;10057;59.402;17.866;2022-11-04T08:17:44;101080.34;;;8.99;90.40
19795;BME280;10057;59.402;17.866;2022-11-04T08:20:10;101082.81;;;9.07;90.27
19795;BME280;10057;59.402;17.866;2022-11-04T08:22:37;101074.72;;;9.13;90.12
19795;BME280;10057;59.402;17.866;2022-11-04T08:25:04;101074.59;;;9.17;89.71
19795;BME280;10057;59.402;17.866;2022-11-04T08:27:31;101070.91;;;9.23;89.49
19795;BME280;10057;59.402;17.866;2022-11-04T08:29:59;101070.88;;;9.24;90.09
19795;BME280;10057;59.402;17.866;2022-11-04T08:32:26;101077.88;;;9.27;89.93
19795;BME280;10057;59.402;17.866;2022-11-04T08:34:52;101068.09;;;9.29;89.46
19795;BME280;10057;59.402;17.866;2022-11-04T08:37:19;101068.94;;;9.31;90.18
19795;BME280;10057;59.402;17.866;2022-11-04T08:39:45;101066.16;;;9.36;89.75
19795;BME280;10057;59.402;17.866;2022-11-04T08:42:12;101066.06;;;9.39;89.43
19795;BME280;10057;59.402;17.866;2022-11-04T08:44:39;101066.84;;;9.42;89.69
19795;BME280;10057;59.402;17.866;2022-11-04T08:47:05;101057.91;;;9.46;89.46
19795;BME280;10057;59.402;17.866;2022-11-04T08:49:37;101047.31;;;9.46;89.45
19795;BME280;10057;59.402;17.866;2022-11-04T08:52:16;101055.94;;;9.55;89.10
19795;BME280;10057;59.402;17.866;2022-11-04T08:54:46;101047.84;;;9.59;89.15
19795;BME280;10057;59.402;17.866;2022-11-04T08:57:12;101046.75;;;9.66;88.92
19795;BME280;10057;59.402;17.866;2022-11-04T08:59:39;101044.97;;;9.68;89.36
19795;BME280;10057;59.402;17.866;2022-11-04T09:02:11;101041.31;;;9.72;88.96
19795;BME280;10057;59.402;17.866;2022-11-04T09:04:39;101042.03;;;9.78;88.63
19795;BME280;10057;59.402;17.866;2022-11-04T09:07:05;101042.78;;;9.83;88.50
19795;BME280;10057;59.402;17.866;2022-11-04T09:09:33;101039.09;;;9.88;88.49
19795;BME280;10057;59.402;17.866;2022-11-04T09:12:00;101034.56;;;9.92;88.62
19795;BME280;10057;59.402;17.866;2022-11-04T09:14:27;101040.53;;;9.99;88.38
19795;BME280;10057;59.402;17.866;2022-11-04T09:16:54;101037.69;;;10.05;88.33
19795;BME280;10057;59.402;17.866;2022-11-04T09:19:22;101038.47;;;10.08;88.00
19795;BME280;10057;59.402;17.866;2022-11-04T09:21:49;101041.88;;;10.12;87.53
19795;BME280;10057;59.402;17.866;2022-11-04T09:24:16;101039.19;;;10.13;87.51
19795;BME280;10057;59.402;17.866;2022-11-04T09:26:42;101047.00;;;10.18;87.16
19795;BME280;10057;59.402;17.866;2022-11-04T09:29:10;101038.97;;;10.21;86.81
19795;BME280;10057;59.402;17.866;2022-11-04T09:31:36;101045.09;;;10.23;86.50
19795;BME280;10057;59.402;17.866;2022-11-04T09:34:03;101051.13;;;10.28;86.17
19795;BME280;10057;59.402;17.866;2022-11-04T09:36:30;101051.97;;;10.30;86.10
19795;BME280;10057;59.402;17.866;2022-11-04T09:38:56;101055.41;;;10.34;85.95
19795;BME280;10057;59.402;17.866;2022-11-04T09:44:28;101050.78;;;10.40;85.53
19795;BME280;10057;59.402;17.866;2022-11-04T09:46:59;101044.50;;;10.43;85.19
19795;BME280;10057;59.402;17.866;2022-11-04T09:49:38;101049.75;;;10.44;85.33
19795;BME280;10057;59.402;17.866;2022-11-04T09:52:16;101047.84;;;10.50;85.18
19795;BME280;10057;59.402;17.866;2022-11-04T09:57:28;101045.03;;;10.54;84.77
19795;BME280;10057;59.402;17.866;2022-11-04T09:59:55;101052.91;;;10.56;84.40
19795;BME280;10057;59.402;17.866;2022-11-04T10:02:51;101050.22;;;10.57;83.98
19795;BME280;10057;59.402;17.866;2022-11-04T10:11:06;101043.16;;;10.56;82.93
19795;BME280;10057;59.402;17.866;2022-11-04T10:24:56;101067.22;;;10.52;81.44
19795;BME280;10057;59.402;17.866;2022-11-04T10:27:29;101060.19;;;10.51;81.55
19795;BME280;10057;59.402;17.866;2022-11-04T10:30:25;101067.22;;;10.52;81.00
19795;BME280;10057;59.402;17.866;2022-11-04T10:35:52;101064.47;;;10.55;80.85
19795;BME280;10057;59.402;17.866;2022-11-04T10:38:46;101066.09;;;10.59;80.91
19795;BME280;10057;59.402;17.866;2022-11-04T10:43:51;101066.91;;;10.61;80.68
19795;BME280;10057;59.402;17.866;2022-11-04T10:51:24;101075.81;;;10.60;79.97
19795;BME280;10057;59.402;17.866;2022-11-04T10:53:56;101064.38;;;10.58;79.76
19795;BME280;10057;59.402;17.866;2022-11-04T10:59:28;101068.81;;;10.57;79.72
19795;BME280;10057;59.402;17.866;2022-11-04T11:01:56;101070.59;;;10.57;79.57
19795;BME280;10057;59.402;17.866;2022-11-04T11:04:26;101060.00;;;10.55;79.10
19795;BME280;10057;59.402;17.866;2022-11-04T11:06:54;101072.50;;;10.52;78.46
19795;BME280;10057;59.402;17.866;2022-11-04T11:09:33;101069.06;;;10.50;78.22
19795;BME280;10057;59.402;17.866;2022-11-04T11:12:04;101073.44;;;10.51;78.43
19795;BME280;10057;59.402;17.866;2022-11-04T11:14:52;101069.94;;;10.49;78.13
19795;BME280;10057;59.402;17.866;2022-11-04T11:17:36;101058.44;;;10.50;77.94
19795;BME280;10057;59.402;17.866;2022-11-04T11:20:33;101055.72;;;10.51;78.02
19795;BME280;10057;59.402;17.866;2022-11-04T11:23:04;101057.53;;;10.51;77.95
19795;BME280;10057;59.402;17.866;2022-11-04T11:25:38;101057.56;;;10.49;77.92
19795;BME280;10057;59.402;17.866;2022-11-04T11:28:19;101065.50;;;10.49;77.99
19795;BME280;10057;59.402;17.866;2022-11-04T11:35:41;101055.88;;;10.47;77.60
19795;BME280;10057;59.402;17.866;2022-11-04T11:38:20;101055.03;;;10.46;76.95
19795;BME280;10057;59.402;17.866;2022-11-04T11:40:49;101047.88;;;10.48;76.95
19795;BME280;10057;59.402;17.866;2022-11-04T11:43:42;101048.69;;;10.50;76.95
19795;BME280;10057;59.402;17.866;2022-11-04T11:46:10;101061.03;;;10.51;76.89
19795;BME280;10057;59.402;17.866;2022-11-04T11:48:40;101054.81;;;10.52;76.96
19795;BME280;10057;59.402;17.866;2022-11-04T11:51:13;101045.97;;;10.52;76.44
19795;BME280;10057;59.402;17.866;2022-11-04T11:53:59;101051.28;;;10.52;76.49
19795;BME280;10057;59.402;17.866;2022-11-04T11:56:34;101052.13;;;10.54;76.80
19795;BME280;10057;59.402;17.866;2022-11-04T11:59:25;101047.69;;;10.54;76.86
19795;BME280;10057;59.402;17.866;2022-11-04T12:02:34;101048.53;;;10.55;76.54
19795;BME280;10057;59.402;17.866;2022-11-04T12:05:11;101043.16;;;10.56;76.76
19795;BME280;10057;59.402;17.866;2022-11-04T12:11:16;101043.16;;;10.56;76.58
19795;BME280;10057;59.402;17.866;2022-11-04T12:13:52;101040.59;;;10.55;76.82
19795;BME280;10057;59.402;17.866;2022-11-04T12:16:54;101043.22;;;10.55;76.79
19795;BME280;10057;59.402;17.866;2022-11-04T12:25:45;101038.88;;;10.52;77.00
19795;BME280;10057;59.402;17.866;2022-11-04T12:34:29;101037.22;;;10.50;77.03
19795;BME280;10057;59.402;17.866;2022-11-04T12:42:26;101032.00;;;10.47;77.04
19795;BME280;10057;59.402;17.866;2022-11-04T12:47:59;101030.25;;;10.46;77.10
19795;BME280;10057;59.402;17.866;2022-11-04T12:53:24;101038.28;;;10.44;77.06
19795;BME280;10057;59.402;17.866;2022-11-04T12:56:13;101026.81;;;10.43;77.13
19795;BME280;10057;59.402;17.866;2022-11-04T13:01:44;101023.28;;;10.43;76.94
19795;BME280;10057;59.402;17.866;2022-11-04T13:04:24;101022.41;;;10.42;77.04
19795;BME280;10057;59.402;17.866;2022-11-04T13:07:08;101026.81;;;10.43;76.87
19795;BME280;10057;59.402;17.866;2022-11-04T13:09:43;101025.03;;;10.42;77.06
19795;BME280;10057;59.402;17.866;2022-11-04T13:12:14;101021.50;;;10.43;76.88
19795;BME280;10057;59.402;17.866;2022-11-04T13:17:33;101024.16;;;10.43;76.73
19795;BME280;10057;59.402;17.866;2022-11-04T13:22:45;101025.03;;;10.44;76.65
19795;BME280;10057;59.402;17.866;2022-11-04T13:27:46;101031.19;;;10.44;76.58
19795;BME280;10057;59.402;17.866;2022-11-04T13:37:56;101017.91;;;10.44;76.57
19795;BME280;10057;59.402;17.866;2022-11-04T13:46:14;101026.91;;;10.40;76.66
19795;BME280;10057;59.402;17.866;2022-11-04T13:48:57;101027.91;;;10.36;76.68
19795;BME280;10057;59.402;17.866;2022-11-04T13:54:05;101016.47;;;10.34;76.78
19795;BME280;10057;59.402;17.866;2022-11-04T13:56:35;101018.44;;;10.29;76.85
19795;BME280;10057;59.402;17.866;2022-11-04T13:59:22;101021.97;;;10.28;76.92
19795;BME280;10057;59.402;17.866;2022-11-04T14:04:41;101031.00;;;10.21;76.94
19795;BME280;10057;59.402;17.866;2022-11-04T14:07:10;101038.16;;;10.19;77.25
19795;BME280;10057;59.402;17.866;2022-11-04T14:14:38;101042.00;;;10.09;77.07
19795;BME280;10057;59.402;17.866;2022-11-04T14:20:29;101029.84;;;10.02;77.27
19795;BME280;10057;59.402;17.866;2022-11-04T14:23:01;101033.47;;;9.99;77.70
19795;BME280;10057;59.402;17.866;2022-11-04T14:25:40;101029.16;;;9.95;77.85
19795;BME280;10057;59.402;17.866;2022-11-04T14:33:27;101029.38;;;9.87;78.22
19795;BME280;10057;59.402;17.866;2022-11-04T14:35:56;101029.47;;;9.84;78.12
19795;BME280;10057;59.402;17.866;2022-11-04T14:38:39;101034.88;;;9.81;78.34
19795;BME280;10057;59.402;17.866;2022-11-04T14:43:48;101038.56;;;9.76;78.39
19795;BME280;10057;59.402;17.866;2022-11-04T14:46:24;101043.00;;;9.75;78.42
19795;BME280;10057;59.402;17.866;2022-11-04T14:48:55;101041.31;;;9.72;78.40
19795;BME280;10057;59.402;17.866;2022-11-04T14:51:32;101045.75;;;9.70;78.50
19795;BME280;10057;59.402;17.866;2022-11-04T14:54:04;101047.53;;;9.70;78.25
19795;BME280;10057;59.402;17.866;2022-11-04T14:56:32;101044.97;;;9.68;78.72
19795;BME280;10057;59.402;17.866;2022-11-04T14:59:02;101044.97;;;9.67;78.64
19795;BME280;10057;59.402;17.866;2022-11-04T15:01:36;101042.41;;;9.64;78.80
19795;BME280;10057;59.402;17.866;2022-11-04T15:04:25;101038.97;;;9.62;79.22
19795;BME280;10057;59.402;17.866;2022-11-04T15:07:03;101032.81;;;9.60;78.75
19795;BME280;10057;59.402;17.866;2022-11-04T15:09:37;101031.16;;;9.57;78.80
19795;BME280;10057;59.402;17.866;2022-11-04T15:14:53;101033.91;;;9.53;79.23
19795;BME280;10057;59.402;17.866;2022-11-04T15:17:21;101033.09;;;9.51;78.90
19795;BME280;10057;59.402;17.866;2022-11-04T15:19:51;101034.91;;;9.48;79.24
19795;BME280;10057;59.402;17.866;2022-11-04T15:22:18;101033.19;;;9.47;79.13
19795;BME280;10057;59.402;17.866;2022-11-04T15:24:45;101035.00;;;9.45;79.48
19795;BME280;10057;59.402;17.866;2022-11-04T15:27:15;101040.28;;;9.45;79.85
19795;BME280;10057;59.402;17.866;2022-11-04T15:29:57;101034.13;;;9.45;79.70
19795;BME280;10057;59.402;17.866;2022-11-04T15:32:25;101034.16;;;9.43;79.37
19795;BME280;10057;59.402;17.866;2022-11-04T15:34:53;101042.09;;;9.43;79.23